Overview Statistics Trail Chart Weather Telemetry Raw packets
 

This is the latest recevied weather packets stored in our database for station/object KLEMETTI. If no packets are shown the sender has not sent any weather packets the latest 10 day(s).

<< 1 2 3 4 >>
Time Temp. Humidity Pressure Rain* Wind** Luminosity Snow
1788655500 9.44° C 74% 1004.9 hPa 0 mm - - -
1788654298 9.44° C 76% 1004.8 hPa 0 mm - - -
1788653096 10° C 79% 1004.5 hPa 0 mm - - -
1788651897 10° C 81% 1004.4 hPa 0 mm - - -
1788650696 10° C 82% 1004.4 hPa 0 mm - - -
1788649497 9.44° C 82% 1004.2 hPa 0 mm - - -
1788648296 9.44° C 86% 1004.1 hPa 0 mm - - -
1788647097 7.22° C 98% 1004 hPa 0 mm - - -
1788645898 7.22° C 97% 1003.9 hPa 0 mm - - -
1788644697 7.78° C 95% 1003.8 hPa 0 mm - - -
1788643287 8.33° C 92% 1003.6 hPa 0 mm - - -
1788642086 8.89° C 88% 1003.6 hPa 0 mm - - -
1788641096 10° C 85% 1003.4 hPa 0 mm - - -
1788639897 10° C 83% 1003.1 hPa 0 mm - - -
1788638698 10° C 84% 1003 hPa 0 mm - - -
1788637495 10.56° C 83% 1002.7 hPa 0 mm - - -
1788635095 10.56° C 82% 1002.8 hPa 0 mm - - -
1788633897 10° C 83% 1002.6 hPa 0 mm - - -
1788632696 10° C 82% 1002.4 hPa 0 mm - - -
1788631494 10.56° C 81% 1002.2 hPa 0 mm - - -
1788630293 10.56° C 82% 1001.9 hPa 0 mm - - -
1788629094 10.56° C 81% 1001.8 hPa 0 mm - - -
1788626697 11.11° C 77% 1001.4 hPa 0 mm - - -
1788625288 11.11° C 77% 1001.2 hPa 0 mm - - -
1788624295 11.67° C 74% 1000.9 hPa 0 mm - - -

* Rain latest hour (hover to see other rain measurements)
** Current wind speed in m/s (hover to see current wind gust speed)